TimeCST,TemperatureF,Dew PointF,Humidity,Sea Level PressureIn,VisibilityMPH,Wind Direction,Wind SpeedMPH,Gust SpeedMPH,PrecipitationIn,Events,Conditions,WindDirDegrees,DateUTC
12:56 AM,35.1,24.1,64,29.51,10.0,South,17.3,-,N/A,,Clear,180,2014-01-12 06:56:00
1:56 AM,36.0,25.0,64,29.46,10.0,South,17.3,-,N/A,,Clear,180,2014-01-12 07:56:00
2:56 AM,36.0,26.1,67,29.42,10.0,SSW,15.0,25.3,N/A,,Clear,200,2014-01-12 08:56:00
3:56 AM,36.0,26.1,67,29.37,10.0,South,15.0,-,N/A,,Clear,190,2014-01-12 09:56:00
4:56 AM,37.0,25.0,62,29.37,10.0,SSW,9.2,-,N/A,,Partly Cloudy,210,2014-01-12 10:56:00
5:56 AM,37.0,25.0,62,29.37,10.0,SW,9.2,-,N/A,,Mostly Cloudy,220,2014-01-12 11:56:00
6:56 AM,37.9,27.0,65,29.37,10.0,SW,5.8,-,N/A,,Overcast,230,2014-01-12 12:56:00
7:56 AM,37.0,28.9,73,29.43,10.0,West,9.2,-,N/A,,Overcast,260,2014-01-12 13:56:00
8:56 AM,37.0,30.9,79,29.45,10.0,NW,11.5,-,N/A,,Overcast,310,2014-01-12 14:56:00
9:56 AM,37.0,30.9,79,29.47,10.0,WNW,6.9,-,N/A,,Overcast,290,2014-01-12 15:56:00
10:56 AM,37.9,32.0,79,29.48,10.0,West,6.9,-,N/A,,Overcast,280,2014-01-12 16:56:00
11:56 AM,39.0,32.0,76,29.47,10.0,WSW,5.8,-,N/A,,Overcast,250,2014-01-12 17:56:00
12:56 PM,39.9,32.0,73,29.47,10.0,Variable,3.5,-,N/A,,Overcast,0,2014-01-12 18:56:00
1:56 PM,39.0,32.0,76,29.47,10.0,West,4.6,-,N/A,,Overcast,260,2014-01-12 19:56:00
2:56 PM,37.9,30.9,76,29.51,10.0,West,6.9,-,N/A,,Overcast,270,2014-01-12 20:56:00
3:56 PM,37.9,30.9,76,29.55,10.0,WNW,6.9,-,N/A,,Overcast,290,2014-01-12 21:56:00
4:56 PM,37.9,30.9,76,29.55,10.0,West,9.2,-,N/A,,Overcast,270,2014-01-12 22:56:00
5:56 PM,37.0,30.9,79,29.57,10.0,West,5.8,-,N/A,,Mostly Cloudy,270,2014-01-12 23:56:00
6:56 PM,36.0,30.0,79,29.60,10.0,WSW,3.5,-,N/A,,Mostly Cloudy,240,2014-01-13 00:56:00
7:56 PM,37.0,30.9,79,29.63,10.0,SW,9.2,-,N/A,,Overcast,220,2014-01-13 01:56:00
8:56 PM,37.0,30.0,76,29.62,10.0,WSW,4.6,-,N/A,,Overcast,240,2014-01-13 02:56:00
9:56 PM,36.0,28.9,76,29.63,10.0,West,8.1,-,N/A,,Mostly Cloudy,270,2014-01-13 03:56:00
10:56 PM,34.0,28.0,79,29.65,10.0,West,6.9,-,N/A,,Scattered Clouds,280,2014-01-13 04:56:00
11:56 PM,34.0,27.0,75,29.65,10.0,WNW,6.9,-,N/A,,Partly Cloudy,300,2014-01-13 05:56:00